createdAt,value
2023-01-13T00:01:10.373Z,0.68
2023-01-13T00:03:38.268Z,0.70
2023-01-13T00:06:07.807Z,0.88
2023-01-13T00:08:37.167Z,0.82
2023-01-13T00:11:06.776Z,0.70
2023-01-13T00:13:35.479Z,0.88
2023-01-13T00:16:06.396Z,0.80
2023-01-13T00:18:36.786Z,0.73
2023-01-13T00:21:07.038Z,0.57
2023-01-13T00:23:36.837Z,0.65
2023-01-13T00:26:08.958Z,0.50
2023-01-13T00:28:37.164Z,0.47
2023-01-13T00:31:08.733Z,0.73
2023-01-13T00:33:37.307Z,0.80
2023-01-13T00:36:07.268Z,0.73
2023-01-13T00:38:37.853Z,0.70
2023-01-13T00:41:07.773Z,0.80
2023-01-13T00:43:36.284Z,1.10
2023-01-13T00:46:04.814Z,0.98
2023-01-13T00:48:32.901Z,0.80
2023-01-13T00:51:02.785Z,0.70
2023-01-13T00:53:34.187Z,0.60
2023-01-13T00:56:04.751Z,0.77
2023-01-13T00:58:34.339Z,0.75
2023-01-13T01:01:02.650Z,0.73
2023-01-13T01:03:30.519Z,0.90
2023-01-13T01:05:58.773Z,0.73
2023-01-13T01:08:26.611Z,0.70
2023-01-13T01:11:03.973Z,0.60
2023-01-13T01:13:32.560Z,0.60
2023-01-13T01:16:00.998Z,0.57
2023-01-13T01:18:29.135Z,0.73
2023-01-13T01:21:00.758Z,1.30
2023-01-13T01:23:29.136Z,0.73
2023-01-13T01:26:01.743Z,0.98
2023-01-13T01:28:30.936Z,0.70
2023-01-13T01:30:59.806Z,0.95
2023-01-13T01:33:27.793Z,0.50
2023-01-13T01:35:57.419Z,0.65
2023-01-13T01:38:25.375Z,0.73
2023-01-13T01:40:53.250Z,0.80
2023-01-13T01:43:40.804Z,0.63
2023-01-13T01:46:10.208Z,0.90
2023-01-13T01:48:42.970Z,0.45
2023-01-13T01:51:13.390Z,1.02
2023-01-13T01:53:42.531Z,0.57
2023-01-13T01:56:12.184Z,0.60
2023-01-13T01:58:45.626Z,1.08
2023-01-13T02:01:16.189Z,0.75
2023-01-13T02:03:47.774Z,0.70
2023-01-13T02:06:17.110Z,0.88
2023-01-13T02:08:45.443Z,0.60
2023-01-13T02:11:42.290Z,0.90
2023-01-13T02:14:10.177Z,0.70
2023-01-13T02:16:44.043Z,0.98
2023-01-13T02:19:29.831Z,0.77
2023-01-13T02:22:21.541Z,0.85
2023-01-13T02:25:17.929Z,0.60
2023-01-13T02:28:01.113Z,0.98
2023-01-13T02:30:58.937Z,0.60
2023-01-13T02:33:43.050Z,0.43
2023-01-13T02:36:20.593Z,0.68
2023-01-13T02:38:53.454Z,0.73
2023-01-13T02:41:46.018Z,0.65
2023-01-13T02:44:21.278Z,0.65
2023-01-13T02:46:58.350Z,0.65
2023-01-13T02:49:32.252Z,0.75
2023-01-13T02:52:06.361Z,0.35
2023-01-13T02:54:37.209Z,0.70
2023-01-13T02:57:09.805Z,1.20
2023-01-13T02:59:40.115Z,0.75
2023-01-13T03:02:13.685Z,0.80
2023-01-13T03:04:54.159Z,0.60
2023-01-13T03:07:49.144Z,0.55
2023-01-13T03:10:28.583Z,0.80
2023-01-13T03:13:03.212Z,0.50
2023-01-13T03:15:44.014Z,0.50
2023-01-13T03:18:24.187Z,0.40
2023-01-13T03:21:02.970Z,0.70
2023-01-13T03:23:38.685Z,0.50
2023-01-13T03:26:11.100Z,0.47
2023-01-13T03:31:15.028Z,0.50
2023-01-13T03:36:17.242Z,0.22
2023-01-13T03:38:48.702Z,0.38
2023-01-13T03:41:21.344Z,0.43
2023-01-13T03:44:11.053Z,0.60
2023-01-13T03:46:45.707Z,0.35
2023-01-13T03:49:20.581Z,0.38
2023-01-13T03:51:55.515Z,0.50
2023-01-13T03:54:28.845Z,0.63
2023-01-13T03:57:00.461Z,0.57
2023-01-13T03:59:32.354Z,0.43
2023-01-13T04:02:04.740Z,0.45
2023-01-13T04:07:14.777Z,0.55
2023-01-13T04:09:51.010Z,0.57
2023-01-13T04:12:25.679Z,0.40
2023-01-13T04:14:55.279Z,0.60
2023-01-13T04:17:24.689Z,0.50
2023-01-13T04:19:54.105Z,0.50
2023-01-13T04:22:22.125Z,0.88
2023-01-13T04:24:50.089Z,1.38
2023-01-13T04:27:18.056Z,0.40
2023-01-13T04:29:46.130Z,0.50
2023-01-13T04:32:14.112Z,0.63
2023-01-13T04:34:43.342Z,0.50
2023-01-13T04:37:12.746Z,0.80
2023-01-13T04:39:41.904Z,0.40
2023-01-13T04:42:09.783Z,0.52
2023-01-13T04:44:37.736Z,0.35
2023-01-13T04:47:08.830Z,0.45
2023-01-13T04:49:36.800Z,0.60
2023-01-13T04:52:07.028Z,0.55
2023-01-13T04:54:36.333Z,0.85
2023-01-13T04:57:04.162Z,0.40
2023-01-13T04:59:34.476Z,0.47
2023-01-13T05:02:03.040Z,0.70
2023-01-13T05:04:31.037Z,0.60
2023-01-13T05:06:59.632Z,0.40
2023-01-13T05:09:27.722Z,0.32
2023-01-13T05:12:14.880Z,0.60
2023-01-13T05:15:00.004Z,0.47
2023-01-13T05:17:28.064Z,0.32
2023-01-13T05:19:56.061Z,0.50
2023-01-13T05:22:41.777Z,0.30
2023-01-13T05:25:22.717Z,0.63
2023-01-13T05:27:53.458Z,0.50
2023-01-13T05:30:22.796Z,0.52
2023-01-13T05:32:51.255Z,0.40
2023-01-13T05:35:19.311Z,0.50
2023-01-13T05:37:47.908Z,0.38
2023-01-13T05:40:35.560Z,0.40
2023-01-13T05:43:22.175Z,0.40
2023-01-13T05:45:59.393Z,0.30
2023-01-13T05:48:29.307Z,0.63
2023-01-13T05:50:57.857Z,0.50
2023-01-13T05:53:26.803Z,0.50
2023-01-13T05:55:55.332Z,0.45
2023-01-13T05:58:27.139Z,0.40
2023-01-13T06:01:02.883Z,0.60
2023-01-13T06:03:42.935Z,0.50
2023-01-13T06:06:10.926Z,0.38
2023-01-13T06:08:39.966Z,0.40
2023-01-13T06:11:08.049Z,0.35
2023-01-13T06:13:37.360Z,0.70
2023-01-13T06:16:07.082Z,0.63
2023-01-13T06:18:35.009Z,0.52
2023-01-13T06:21:02.884Z,0.52
2023-01-13T06:23:34.987Z,0.70
2023-01-13T06:26:08.629Z,0.70
2023-01-13T06:28:37.903Z,0.57
2023-01-13T06:31:08.842Z,0.40
2023-01-13T06:33:40.923Z,0.50
2023-01-13T06:36:14.853Z,0.70
2023-01-13T06:38:48.551Z,0.60
2023-01-13T06:41:17.766Z,0.63
2023-01-13T06:43:48.341Z,0.60
2023-01-13T06:46:16.264Z,0.60
2023-01-13T06:48:44.741Z,0.40
2023-01-13T06:51:12.583Z,0.52
2023-01-13T06:53:40.452Z,0.30
2023-01-13T06:56:08.707Z,0.47
2023-01-13T06:58:36.688Z,0.70
2023-01-13T07:01:06.317Z,0.70
2023-01-13T07:03:34.414Z,0.52
2023-01-13T07:06:02.783Z,0.73
2023-01-13T07:08:30.738Z,0.60
2023-01-13T07:10:58.790Z,0.38
2023-01-13T07:13:46.052Z,0.40
2023-01-13T07:16:15.337Z,0.30
2023-01-13T07:18:43.307Z,0.52
2023-01-13T07:21:13.523Z,0.45
2023-01-13T07:23:42.833Z,0.38
2023-01-13T07:26:11.533Z,0.52
2023-01-13T07:28:40.187Z,0.65
2023-01-13T07:31:17.231Z,0.30
2023-01-13T07:33:45.566Z,0.38
2023-01-13T07:36:14.391Z,0.35
2023-01-13T07:38:44.522Z,0.30
2023-01-13T07:41:33.315Z,0.20
2023-01-13T07:44:04.778Z,0.43
2023-01-13T07:46:34.857Z,0.60
2023-01-13T07:49:07.664Z,0.57
2023-01-13T07:51:38.141Z,0.40
2023-01-13T07:54:06.245Z,0.30
2023-01-13T07:56:34.355Z,0.30
2023-01-13T07:59:02.617Z,0.40
2023-01-13T08:01:34.847Z,0.70
2023-01-13T08:04:03.194Z,0.95
2023-01-13T08:06:31.276Z,0.95
2023-01-13T08:08:59.851Z,0.90
2023-01-13T08:11:27.819Z,0.70
2023-01-13T08:13:59.507Z,0.65
2023-01-13T08:16:27.561Z,0.50
2023-01-13T08:18:59.912Z,0.70
2023-01-13T08:21:30.042Z,0.80
2023-01-13T08:23:58.100Z,0.65
2023-01-13T08:26:26.144Z,0.35
2023-01-13T08:28:54.186Z,0.68
2023-01-13T08:31:22.439Z,0.65
2023-01-13T08:33:50.541Z,0.70
2023-01-13T08:36:22.537Z,0.82
2023-01-13T08:38:56.667Z,0.68
2023-01-13T08:41:38.564Z,0.95
2023-01-13T08:44:06.869Z,0.77
2023-01-13T08:46:35.026Z,0.70
2023-01-13T08:49:03.093Z,0.60
2023-01-13T08:51:32.629Z,0.65
2023-01-13T08:54:00.665Z,0.50
2023-01-13T08:56:32.746Z,2.25
2023-01-13T08:59:02.191Z,0.45
2023-01-13T09:01:30.441Z,0.52
2023-01-13T09:03:58.555Z,0.60
2023-01-13T09:06:26.652Z,0.85
2023-01-13T09:08:58.910Z,0.95
2023-01-13T09:11:49.308Z,1.00
2023-01-13T09:14:21.601Z,0.95
2023-01-13T09:16:50.089Z,0.80
2023-01-13T09:19:18.466Z,1.23
2023-01-13T09:21:46.601Z,0.70
2023-01-13T09:24:16.127Z,0.73
2023-01-13T09:26:43.978Z,0.70
2023-01-13T09:29:11.917Z,0.60
2023-01-13T09:31:41.267Z,0.60
2023-01-13T09:34:32.833Z,0.57
2023-01-13T09:37:01.316Z,1.00
2023-01-13T09:39:30.636Z,0.65
2023-01-13T09:42:21.224Z,0.93
2023-01-13T09:44:55.120Z,0.90
2023-01-13T09:47:28.855Z,0.70
2023-01-13T09:50:04.521Z,0.88
2023-01-13T09:52:32.520Z,1.10
2023-01-13T09:55:07.208Z,0.93
2023-01-13T09:57:38.154Z,1.05
2023-01-13T10:00:13.117Z,0.70
2023-01-13T10:03:02.127Z,0.80
2023-01-13T10:05:38.059Z,0.90
2023-01-13T10:08:12.367Z,0.65
2023-01-13T10:10:46.548Z,0.90
2023-01-13T10:13:22.113Z,0.57
2023-01-13T10:16:02.954Z,1.45
2023-01-13T10:18:43.685Z,0.90
2023-01-13T10:21:24.898Z,1.10
2023-01-13T10:24:00.777Z,1.17
2023-01-13T10:26:48.267Z,1.00
2023-01-13T10:29:25.008Z,1.13
2023-01-13T10:31:54.596Z,0.90
2023-01-13T10:34:25.210Z,1.63
2023-01-13T10:37:02.568Z,1.20
2023-01-13T10:39:40.585Z,0.73
2023-01-13T10:42:15.439Z,0.95
2023-01-13T10:44:52.538Z,0.70
2023-01-13T10:47:26.695Z,1.05
2023-01-13T10:50:09.453Z,0.90
2023-01-13T10:52:42.902Z,1.40
2023-01-13T10:55:27.258Z,1.70
2023-01-13T10:57:57.044Z,1.10
2023-01-13T11:00:33.746Z,1.60
2023-01-13T11:03:17.190Z,1.20
2023-01-13T11:05:51.802Z,1.20
2023-01-13T11:08:22.312Z,1.98
2023-01-13T11:10:52.631Z,1.02
2023-01-13T11:13:30.701Z,1.10
2023-01-13T11:16:04.628Z,1.00
2023-01-13T11:18:45.748Z,1.95
2023-01-13T11:21:23.386Z,2.03
2023-01-13T11:24:01.343Z,1.40
2023-01-13T11:26:39.498Z,1.52
2023-01-13T11:29:16.019Z,1.17
2023-01-13T11:31:49.322Z,1.30
2023-01-13T11:34:28.959Z,1.63
2023-01-13T11:36:59.787Z,1.45
2023-01-13T11:39:35.424Z,1.17
2023-01-13T11:42:24.544Z,1.30
2023-01-13T11:45:03.842Z,1.20
2023-01-13T11:47:33.641Z,1.38
2023-01-13T11:50:02.557Z,1.15
2023-01-13T11:52:47.270Z,1.58
2023-01-13T11:55:29.402Z,1.15
2023-01-13T11:58:12.345Z,1.33
2023-01-13T12:00:59.625Z,1.27
2023-01-13T12:03:35.674Z,1.30
2023-01-13T12:06:20.879Z,2.25
2023-01-13T12:09:22.192Z,1.13
2023-01-13T12:12:27.327Z,1.10
2023-01-13T12:15:29.166Z,1.70
2023-01-13T12:18:16.531Z,1.75
2023-01-13T12:20:58.564Z,1.02
2023-01-13T12:23:31.625Z,1.23
2023-01-13T12:26:02.239Z,1.75
2023-01-13T12:28:39.090Z,1.17
2023-01-13T12:31:09.439Z,1.73
2023-01-13T12:33:49.351Z,0.90
2023-01-13T12:36:23.531Z,1.10
2023-01-13T12:38:57.764Z,0.70
2023-01-13T12:41:36.931Z,1.33
2023-01-13T12:44:20.446Z,1.38
2023-01-13T12:46:56.198Z,1.38
2023-01-13T12:49:33.868Z,1.42
2023-01-13T12:52:15.315Z,0.90
2023-01-13T12:55:18.267Z,1.10
2023-01-13T13:00:59.217Z,1.67
2023-01-13T13:03:33.315Z,1.17
2023-01-13T13:06:08.696Z,1.02
2023-01-13T13:08:47.705Z,1.42
2023-01-13T13:11:59.676Z,1.77
2023-01-13T13:15:03.920Z,1.63
2023-01-13T13:17:46.860Z,1.00
2023-01-13T13:23:02.677Z,0.40
2023-01-13T13:25:30.612Z,0.95
2023-01-13T13:28:18.927Z,0.90
2023-01-13T13:31:18.171Z,1.02
2023-01-13T13:34:01.602Z,1.38
2023-01-13T13:36:51.238Z,0.70
2023-01-13T13:39:41.968Z,1.27
2023-01-13T13:42:34.570Z,1.20
2023-01-13T13:45:22.185Z,1.00
2023-01-13T13:47:50.421Z,0.40
2023-01-13T13:50:20.829Z,1.08
2023-01-13T13:52:54.976Z,0.77
2023-01-13T13:55:27.467Z,0.93
2023-01-13T14:00:29.605Z,0.90
2023-01-13T14:03:01.061Z,1.10
2023-01-13T14:05:30.703Z,0.90
2023-01-13T14:08:05.195Z,1.23
2023-01-13T14:10:36.555Z,1.30
2023-01-13T14:13:15.158Z,1.23
2023-01-13T14:15:43.445Z,1.00
2023-01-13T14:18:15.040Z,0.88
2023-01-13T14:20:44.006Z,1.07
2023-01-13T14:23:17.780Z,1.02
2023-01-13T14:25:49.765Z,0.90
2023-01-13T14:28:23.349Z,0.52
2023-01-13T14:30:52.511Z,1.10
2023-01-13T14:33:24.562Z,0.80
2023-01-13T14:36:16.005Z,0.82
2023-01-13T14:38:46.110Z,1.05
2023-01-13T14:41:21.696Z,1.33
2023-01-13T14:43:51.690Z,1.42
2023-01-13T14:46:22.198Z,0.98
2023-01-13T14:48:53.813Z,0.80
2023-01-13T14:51:26.571Z,0.93
2023-01-13T14:53:58.004Z,1.45
2023-01-13T14:56:50.716Z,1.17
2023-01-13T14:59:45.326Z,1.30
2023-01-13T15:02:47.631Z,0.90
2023-01-13T15:05:49.245Z,1.33
2023-01-13T15:08:39.524Z,1.55
2023-01-13T15:11:18.991Z,1.30
2023-01-13T15:13:53.780Z,0.82
2023-01-13T15:16:24.962Z,1.67
2023-01-13T15:18:53.514Z,1.25
2023-01-13T15:21:21.635Z,1.45
2023-01-13T15:23:49.695Z,1.20
2023-01-13T15:26:22.957Z,1.67
2023-01-13T15:28:53.376Z,1.23
2023-01-13T15:31:21.808Z,1.75
2023-01-13T15:33:50.313Z,1.25
2023-01-13T15:36:23.662Z,1.25
2023-01-13T15:38:51.909Z,2.25
2023-01-13T15:41:42.056Z,2.22
2023-01-13T15:44:31.547Z,1.33
2023-01-13T15:47:02.497Z,1.60
2023-01-13T15:49:36.266Z,1.80
2023-01-13T15:52:05.480Z,1.73
2023-01-13T15:54:33.609Z,1.55
2023-01-13T15:57:01.985Z,1.20
2023-01-13T15:59:34.860Z,1.35
2023-01-13T16:02:02.916Z,1.65
2023-01-13T16:04:30.885Z,1.33
2023-01-13T16:06:59.100Z,1.27
2023-01-13T16:09:27.143Z,1.95
2023-01-13T16:11:55.236Z,1.70
2023-01-13T16:14:23.749Z,1.30
2023-01-13T16:16:58.127Z,1.02
2023-01-13T16:19:26.298Z,1.30
2023-01-13T16:21:54.410Z,1.27
2023-01-13T16:24:22.921Z,1.38
2023-01-13T16:26:51.406Z,1.20
2023-01-13T16:32:19.749Z,1.45
2023-01-13T16:34:48.015Z,1.35
2023-01-13T16:37:23.365Z,1.52
2023-01-13T16:39:52.638Z,1.33
2023-01-13T16:42:22.507Z,1.58
2023-01-13T16:44:52.896Z,1.20
2023-01-13T16:47:23.991Z,1.60
2023-01-13T16:49:52.418Z,1.75
2023-01-13T16:52:20.985Z,1.00
2023-01-13T16:54:49.090Z,1.23
2023-01-13T16:57:17.163Z,2.15
2023-01-13T16:59:45.311Z,1.23
2023-01-13T17:02:15.319Z,1.38
2023-01-13T17:04:44.946Z,2.00
2023-01-13T17:07:17.497Z,1.40
2023-01-13T17:12:13.565Z,1.30
2023-01-13T17:14:43.421Z,1.17
2023-01-13T17:17:21.930Z,1.70
2023-01-13T17:19:52.124Z,1.42
2023-01-13T17:22:21.432Z,1.02
2023-01-13T17:24:51.669Z,1.13
2023-01-13T17:27:21.583Z,1.40
2023-01-13T17:29:49.955Z,1.20
2023-01-13T17:32:19.498Z,1.42
2023-01-13T17:34:47.653Z,1.58
2023-01-13T17:37:18.076Z,1.20
2023-01-13T17:39:48.336Z,1.65
2023-01-13T17:42:16.912Z,1.60
2023-01-13T17:44:47.803Z,1.45
2023-01-13T17:47:16.222Z,1.30
2023-01-13T17:49:44.577Z,1.13
2023-01-13T17:52:12.751Z,1.50
2023-01-13T17:54:43.182Z,1.50
2023-01-13T17:57:11.489Z,1.50
2023-01-13T17:59:41.434Z,1.50
2023-01-13T18:02:12.325Z,1.23
2023-01-13T18:04:40.519Z,1.90
2023-01-13T18:07:08.574Z,1.42
2023-01-13T18:09:36.792Z,1.65
2023-01-13T18:12:06.593Z,1.02
2023-01-13T18:14:35.192Z,1.20
2023-01-13T18:17:03.059Z,1.48
2023-01-13T18:19:48.858Z,1.20
2023-01-13T18:22:34.494Z,1.40
2023-01-13T18:25:24.504Z,1.73
2023-01-13T18:27:54.238Z,1.40
2023-01-13T18:30:25.447Z,2.15
2023-01-13T18:32:53.870Z,2.60
2023-01-13T18:35:23.093Z,1.63
2023-01-13T18:37:52.215Z,1.50
2023-01-13T18:40:20.715Z,1.98
2023-01-13T18:42:54.940Z,1.73
2023-01-13T18:45:30.027Z,1.95
2023-01-13T18:48:03.113Z,1.30
2023-01-13T18:50:32.648Z,1.13
2023-01-13T18:53:00.961Z,1.20
2023-01-13T18:55:32.207Z,1.50
2023-01-13T18:58:00.666Z,1.33
2023-01-13T19:00:36.340Z,1.50
2023-01-13T19:05:34.602Z,1.50
2023-01-13T19:08:04.753Z,1.38
2023-01-13T19:10:32.972Z,0.98
2023-01-13T19:13:02.288Z,1.10
2023-01-13T19:15:31.988Z,1.63
2023-01-13T19:18:00.816Z,1.05
2023-01-13T19:20:31.156Z,1.55
2023-01-13T19:23:02.227Z,1.70
2023-01-13T19:25:30.329Z,1.27
2023-01-13T19:28:03.892Z,1.65
2023-01-13T19:30:33.701Z,1.70
2023-01-13T19:33:01.781Z,1.52
2023-01-13T19:35:30.159Z,1.23
2023-01-13T19:37:58.230Z,1.95
2023-01-13T19:40:26.549Z,1.35
2023-01-13T19:43:11.906Z,1.52
2023-01-13T19:45:41.846Z,1.50
2023-01-13T19:48:15.916Z,1.42
2023-01-13T19:50:43.989Z,1.80
2023-01-13T19:53:17.321Z,1.88
2023-01-13T19:55:48.631Z,1.75
2023-01-13T19:58:24.053Z,1.50
2023-01-13T20:00:56.636Z,1.75
2023-01-13T20:03:30.854Z,1.70
2023-01-13T20:06:07.386Z,1.83
2023-01-13T20:08:35.481Z,1.98
2023-01-13T20:11:17.324Z,1.80
2023-01-13T20:13:45.387Z,2.50
2023-01-13T20:16:15.230Z,2.25
2023-01-13T20:18:44.646Z,1.30
2023-01-13T20:21:15.624Z,1.58
2023-01-13T20:23:45.950Z,1.40
2023-01-13T20:26:13.992Z,1.23
2023-01-13T20:28:44.888Z,1.23
2023-01-13T20:31:18.023Z,1.45
2023-01-13T20:33:50.682Z,1.98
2023-01-13T20:36:30.154Z,1.67
2023-01-13T20:39:02.517Z,1.25
2023-01-13T20:41:48.092Z,1.50
2023-01-13T20:44:16.813Z,1.95
2023-01-13T20:46:46.478Z,1.40
2023-01-13T20:49:16.193Z,1.83
2023-01-13T20:51:44.363Z,1.63
2023-01-13T20:54:12.567Z,2.25
2023-01-13T20:56:41.051Z,1.10
2023-01-13T20:59:10.153Z,1.67
2023-01-13T21:01:38.821Z,1.58
2023-01-13T21:04:09.331Z,1.35
2023-01-13T21:06:37.784Z,1.92
2023-01-13T21:09:06.034Z,1.58
2023-01-13T21:11:51.688Z,1.60
2023-01-13T21:14:39.336Z,1.55
2023-01-13T21:17:32.375Z,1.38
2023-01-13T21:20:02.931Z,1.65
2023-01-13T21:22:32.317Z,2.50
2023-01-13T21:25:03.588Z,1.67
2023-01-13T21:27:32.813Z,1.33
2023-01-13T21:30:03.889Z,1.20
2023-01-13T21:32:31.875Z,1.92
2023-01-13T21:35:04.195Z,1.52
2023-01-13T21:37:32.505Z,1.80
2023-01-13T21:40:00.610Z,1.45
2023-01-13T21:42:46.241Z,1.40
2023-01-13T21:45:32.268Z,1.60
2023-01-13T21:48:00.777Z,1.80
2023-01-13T21:50:30.470Z,1.33
2023-01-13T21:52:59.730Z,1.70
2023-01-13T21:55:29.408Z,1.45
2023-01-13T21:57:59.246Z,1.80
2023-01-13T22:00:31.498Z,2.00
2023-01-13T22:03:00.277Z,1.67
2023-01-13T22:05:33.366Z,2.40
2023-01-13T22:08:01.654Z,1.60
2023-01-13T22:10:31.668Z,1.50
2023-01-13T22:13:22.293Z,1.95
2023-01-13T22:15:52.082Z,1.40
2023-01-13T22:18:20.262Z,1.95
2023-01-13T22:20:49.862Z,1.35
2023-01-13T22:23:18.206Z,1.00
2023-01-13T22:25:46.866Z,1.63
2023-01-13T22:28:23.825Z,1.45
2023-01-13T22:30:53.483Z,2.28
2023-01-13T22:33:21.701Z,2.10
2023-01-13T22:36:01.192Z,1.77
2023-01-13T22:38:33.583Z,1.80
2023-01-13T22:41:04.097Z,1.40
2023-01-13T22:43:32.378Z,1.83
2023-01-13T22:46:01.180Z,1.75
2023-01-13T22:48:32.700Z,1.60
2023-01-13T22:51:07.437Z,1.63
2023-01-13T22:53:35.968Z,1.63
2023-01-13T22:56:04.836Z,2.58
2023-01-13T22:58:33.322Z,2.00
2023-01-13T23:01:10.180Z,2.15
2023-01-13T23:03:38.492Z,1.50
2023-01-13T23:06:07.964Z,1.73
2023-01-13T23:08:36.453Z,2.10
2023-01-13T23:11:06.150Z,1.48
2023-01-13T23:13:34.211Z,1.48
2023-01-13T23:16:07.363Z,1.98
2023-01-13T23:18:36.154Z,1.70
2023-01-13T23:21:05.770Z,1.60
2023-01-13T23:23:41.757Z,1.80
2023-01-13T23:26:14.167Z,2.00
2023-01-13T23:28:45.195Z,1.88
2023-01-13T23:31:16.352Z,2.00
2023-01-13T23:33:47.792Z,1.60
2023-01-13T23:36:20.180Z,2.13
2023-01-13T23:38:52.087Z,1.60
2023-01-13T23:41:22.471Z,2.05
2023-01-13T23:43:53.835Z,1.40
2023-01-13T23:46:22.170Z,1.95
2023-01-13T23:48:51.396Z,2.10
2023-01-13T23:51:21.698Z,1.80
2023-01-13T23:53:51.769Z,1.95
2023-01-13T23:56:21.570Z,2.83
2023-01-13T23:58:49.975Z,2.05
